Hauptseite
METAR-TAF:

METAR-TAF

Flughäfen :

Vientiane, Laos

Flughafen Vientiane

Breite: 17-57N, Länge: 102-34E, Höhe: 171 m

Beobachtung

Neuester Wetterbericht von vor 35 Minuten, um 13:30 UTC
Wind 6 kt aus Süd/Südost
Temperatur 27°C
Luftfeuchtigkeit 70%
Luftdruck 1011 hPa
Sichtweite: 4000 m
Durchbrochene Bewölkung in der Höhe von 4000 ft
feuchter Dunst

METAR: VLVT 241330Z 16006KT 4000 BR BKN040 27/21 Q1011 NOSIG

Zeit: 21:05 (14:05 UTC)

Prognose

Neuester Wetterbericht von vor 3 Stunden und 5 Minuten, um 11:00 UTC
Gültige Prognose vom 24 um 12 UTC bis 25 um 12 UTC
Wind 6 kt aus West/Südwest
Sichtweite: 7000 m
Aufgelockert bewölkt in der Höhe von 2000 ft
Aufgelockert bewölkt in der Höhe von 5000 ft
Zeitweise
vom 24 um 14 UTC bis 24 um 20 UTC
Sichtweite: 3000 m
Aufgelockert bewölkt in der Höhe von 5000 ft
feuchter Dunst

TAF: VLVT 241100Z 2412/2512 24006KT 7000 SCT020 SCT050 TEMPO 2414/2420 3000 BR SCT050

Wetterbeobachtungen und Prognosen von mehr als 4000 Flughäfen (METAR und TAF Bericht).

Die verfügbaren Stationen werden durch gelbe und rote Markierungen auf der Karte dargestellt.

Führen Sie die Maus auf sie, um den Namen der Station zu sehen.

Darauf klicken, um die Beobachtung von Wetterbeobachtungen und Prognosen zu sehen.

Um die Karte zu ändern : klicken Sie auf den grünen Tasten mit einem schwarzen Kreuz Zum Vergrößern, auf den grünen Button mit einem Gedankenstrich zu verkleinern, oder auf die grünen Pfeile für benachbarte Karten.


METAR-TAF: